Hope Airport
CYHE : now visible

Airfield :











YOU CAN JOIN US ON...

 
LOGIN :

Register | Disclaimer

   EN    FR    IT 

 









Legend :    VFR   Marginal VFR   IFR   Intensive IFR   Very Intensive IFR
Visi :
Ceiling :
>= 8 km
>= 3000ft
5 to 8 km
1000 to 3000 ft
1500m to 5 km
500 to 1000 ft
800 to 1500m
200 to 500 ft
< 800m
< 200 ft
Symbols :   Thunderstorms  Fog  Heavy snow  Heavy precipitations  Wind > 20 kt






- Airport Elevation : 128 ft
- IATA code : YHE


CYHE - Hope

CURRENT METAR :
  • 202300Z AUTO VRB03KT 7SM -RA OVC055 10/07 A3021 RMK PCPN 4.5MM PAST HR SLP234

EXPIRED METARs :
  • 202258Z AUTO VRB04KT 3SM RA BR BKN055 OVC069 10/08 A3022 RMK PRESRR PCPN 4.5MM PAST HR SLP235
  • 202250Z AUTO 16006KT 020V180 2 1/4SM +RA BKN055 OVC072 10/07 A3021 RMK LTNG DIST SE S W PRESRR PCPN 4.0MM PAST HR SLP232
  • 202240Z AUTO VRB02KT 7SM -RA BKN060 OVC073 12/06 A3020 RMK PRESRR PCPN 1.5MM PAST HR SLP228
  • 202230Z AUTO 07004KT 350V100 8SM RA VCTS BKN060 OVC075 12/10 A3017 RMK PRESRR PCPN 1.0MM PAST HR SLP221
  • 202215Z AUTO VRB05KT 9SM -TSRA BKN060 BKN076 OVC092 15/08 A3015 RMK SLP213
  • 202209Z AUTO 02003KT 290V060 9SM -RA FEW060 BKN076 BKN094 OVC130 16/07 A3015 RMK SLP213
  • 202142Z AUTO 33003KT 270V050 9SM VCTS FEW066 SCT120 19/06 A3015 RMK LTNG DIST N SLP211 DENSITY ALT 400FT
  • 202100Z AUTO 31004KT 260V020 9SM FEW091 19/07 A3016 RMK SLP216 DENSITY ALT 400FT

TAF N/A
CZVR FIR / North America



MET'MAP, your aeronautical weather chart ! - Copyright ORBIFLY December 2007 - Disclaimer

ORBIFLY MET'MAP TEAM :

Programming & Development : Alexandra Zaïnal
Original concept : Baudouin d'Aumeries
Technical & hardware support : Manuel Goepfert
Assistance : Marc-Olivier Méhu

Contact : metmap@orbifly.com




SOURCES & CREDITS :

   NOAA       Earth
Advisory